createdAt,value
2018-08-16T04:00:39.955Z,84.75
2018-08-16T04:01:39.926Z,84.75
2018-08-16T04:02:39.886Z,84.71
2018-08-16T04:03:39.889Z,85.02
2018-08-16T04:04:39.855Z,85.16
2018-08-16T04:05:39.847Z,85.36
2018-08-16T04:06:39.909Z,85.47
2018-08-16T04:07:39.828Z,85.26
2018-08-16T04:08:39.816Z,85.16
2018-08-16T04:09:39.807Z,85.16
2018-08-16T04:10:39.787Z,84.95
2018-08-16T04:11:39.793Z,85.26
2018-08-16T04:12:39.766Z,85.47
2018-08-16T04:13:39.753Z,85.26
2018-08-16T04:14:39.742Z,85.16
2018-08-16T04:15:39.731Z,85.36
2018-08-16T04:16:39.753Z,85.53
2018-08-16T04:17:39.722Z,85.57
2018-08-16T04:18:39.700Z,85.47
2018-08-16T04:19:39.687Z,85.36
2018-08-16T04:20:39.723Z,85.36
2018-08-16T04:21:39.678Z,85.36
2018-08-16T04:22:39.673Z,85.47
2018-08-16T04:23:39.738Z,85.26
2018-08-16T04:24:39.642Z,85.06
2018-08-16T04:25:39.618Z,85.88
2018-08-16T04:26:39.635Z,85.67
2018-08-16T04:27:39.626Z,86.18
2018-08-16T04:28:39.587Z,85.77
2018-08-16T04:29:39.579Z,85.67
2018-08-16T04:30:39.566Z,86.18
2018-08-16T04:31:39.561Z,86.59
2018-08-16T04:32:39.543Z,86.49
2018-08-16T04:33:39.529Z,86.49
2018-08-16T04:34:39.568Z,86.18
2018-08-16T04:35:39.504Z,86.38
2018-08-16T04:36:39.506Z,86.96
2018-08-16T04:37:39.488Z,86.55
2018-08-16T04:38:39.475Z,86.49
2018-08-16T04:39:39.463Z,86.69
2018-08-16T04:40:39.454Z,85.73
2018-08-16T04:41:39.556Z,84.71
2018-08-16T04:42:39.433Z,84.95
2018-08-16T04:43:39.419Z,85.22
2018-08-16T04:44:39.405Z,84.95
2018-08-16T04:45:39.408Z,85.47
2018-08-16T04:46:39.413Z,85.26
2018-08-16T04:47:39.427Z,85.26
2018-08-16T04:48:39.428Z,85.57
2018-08-16T04:49:39.385Z,85.94
2018-08-16T04:50:39.347Z,86.65
2018-08-16T04:51:39.342Z,86.49
2018-08-16T04:52:39.316Z,86.14
2018-08-16T04:53:39.307Z,86.24
2018-08-16T04:54:39.304Z,86.38
2018-08-16T04:55:39.284Z,86.76
2018-08-16T04:56:39.285Z,85.73
2018-08-16T04:57:39.261Z,85.94
2018-08-16T04:58:39.250Z,85.94
2018-08-16T04:59:39.238Z,86.59
2018-08-16T05:00:39.229Z,85.77
2018-08-16T05:01:39.269Z,85.94
2018-08-16T05:02:39.207Z,85.83
2018-08-16T05:03:39.198Z,86.44
2018-08-16T05:04:39.190Z,86.79
2018-08-16T05:05:39.172Z,86.04
2018-08-16T05:06:39.172Z,86.85
2018-08-16T05:07:39.150Z,85.83
2018-08-16T05:08:39.137Z,86.24
2018-08-16T05:09:39.126Z,86.55
2018-08-16T05:10:39.115Z,85.83
2018-08-16T05:11:39.104Z,85.02
2018-08-16T05:12:39.114Z,85.63
2018-08-16T05:13:39.081Z,86.65
2018-08-16T05:14:39.069Z,85.73
2018-08-16T05:15:39.081Z,86.82
2018-08-16T05:16:39.047Z,86.04
2018-08-16T05:17:39.045Z,86.61
2018-08-16T05:18:39.025Z,85.89
2018-08-16T05:19:39.019Z,85.79
2018-08-16T05:20:39.024Z,86.55
2018-08-16T05:21:39.031Z,86.30
2018-08-16T05:22:39.018Z,86.82
2018-08-16T05:23:38.989Z,86.00
2018-08-16T05:24:38.967Z,85.59
2018-08-16T05:25:38.947Z,85.49
2018-08-16T05:26:38.940Z,85.79
2018-08-16T05:27:38.942Z,85.18
2018-08-16T05:28:38.946Z,85.49
2018-08-16T05:29:38.903Z,85.38
2018-08-16T05:30:38.891Z,85.59
2018-08-16T05:31:38.930Z,85.79
2018-08-16T05:32:38.910Z,85.08
2018-08-16T05:33:38.856Z,85.38
2018-08-16T05:34:38.852Z,85.18
2018-08-16T05:35:38.854Z,85.49
2018-08-16T05:36:38.823Z,85.59
2018-08-16T05:37:38.828Z,85.69
2018-08-16T05:38:38.804Z,85.86
2018-08-16T05:39:38.799Z,85.55
2018-08-16T05:40:38.781Z,85.59
2018-08-16T05:41:38.767Z,86.67
2018-08-16T05:42:38.786Z,86.06
2018-08-16T05:43:38.759Z,85.79
2018-08-16T05:44:38.735Z,85.45
2018-08-16T05:45:38.724Z,85.65
2018-08-16T05:46:38.713Z,85.65
2018-08-16T05:47:38.712Z,85.86
2018-08-16T05:48:38.692Z,85.65
2018-08-16T05:49:38.684Z,85.65
2018-08-16T05:50:38.715Z,86.36
2018-08-16T05:51:38.655Z,86.26
2018-08-16T05:52:38.656Z,86.26
2018-08-16T05:53:38.635Z,86.36
2018-08-16T05:54:38.640Z,85.86
2018-08-16T05:55:38.614Z,85.45
2018-08-16T05:56:38.603Z,85.45
2018-08-16T05:57:38.604Z,85.65
2018-08-16T05:58:38.579Z,85.65
2018-08-16T05:59:38.572Z,85.61
2018-08-16T06:00:38.583Z,86.43
2018-08-16T06:01:38.564Z,86.43
2018-08-16T06:02:38.577Z,86.02
2018-08-16T06:03:38.526Z,86.53
2018-08-16T06:04:38.546Z,86.12
2018-08-16T06:05:38.509Z,86.12
2018-08-16T06:06:38.494Z,86.22
2018-08-16T06:07:38.558Z,86.22
2018-08-16T06:08:38.469Z,86.33
2018-08-16T06:09:38.456Z,86.22
2018-08-16T06:10:38.451Z,86.22
2018-08-16T06:11:38.434Z,86.02
2018-08-16T06:12:38.483Z,86.53
2018-08-16T06:13:38.424Z,86.59
2018-08-16T06:14:38.407Z,87.00
2018-08-16T06:15:38.394Z,87.10
2018-08-16T06:16:38.401Z,86.39
2018-08-16T06:17:38.381Z,86.29
2018-08-16T06:18:38.358Z,86.08
2018-08-16T06:19:38.350Z,86.80
2018-08-16T06:20:38.335Z,86.24
2018-08-16T06:21:38.325Z,85.86
2018-08-16T06:22:38.323Z,84.39
2018-08-16T06:23:38.302Z,83.44
2018-08-16T06:24:38.291Z,82.68
2018-08-16T06:25:38.323Z,82.85
2018-08-16T06:26:38.266Z,81.39
2018-08-16T06:27:38.277Z,80.74
2018-08-16T06:28:38.284Z,81.15
2018-08-16T06:29:38.234Z,79.69
2018-08-16T06:30:38.248Z,79.14
2018-08-16T06:31:38.287Z,78.60
2018-08-16T06:32:38.232Z,78.30
2018-08-16T06:33:38.200Z,78.53
2018-08-16T06:34:38.201Z,77.72
2018-08-16T06:35:38.171Z,77.51
2018-08-16T06:36:38.157Z,77.98
2018-08-16T06:37:38.154Z,76.93
2018-08-16T06:38:38.136Z,76.29
2018-08-16T06:39:38.127Z,77.61
2018-08-16T06:40:38.116Z,76.15
2018-08-16T06:41:38.101Z,76.35
2018-08-16T06:42:38.102Z,75.71
2018-08-16T06:43:38.078Z,75.51
2018-08-16T06:44:38.069Z,74.57
2018-08-16T06:45:38.054Z,73.86
2018-08-16T06:46:38.050Z,74.22
2018-08-16T06:47:38.061Z,74.02
2018-08-16T06:48:38.020Z,73.72
2018-08-16T06:49:38.017Z,73.69
2018-08-16T06:50:38.003Z,73.65
2018-08-16T06:51:37.993Z,74.16
2018-08-16T06:52:38.050Z,74.02
2018-08-16T06:53:37.967Z,71.80
2018-08-16T06:54:38.012Z,71.37
2018-08-16T06:55:37.957Z,71.87
2018-08-16T06:56:37.938Z,70.42
2018-08-16T06:57:37.933Z,70.73
2018-08-16T06:58:37.918Z,70.53
2018-08-16T06:59:37.905Z,69.29
2018-08-16T07:00:37.887Z,69.29
2018-08-16T07:01:37.879Z,69.65
2018-08-16T07:02:37.878Z,68.44
2018-08-16T07:03:37.854Z,67.81
2018-08-16T07:04:37.845Z,67.21
2018-08-16T07:05:37.836Z,66.37
2018-08-16T07:06:37.827Z,65.06
2018-08-16T07:07:37.824Z,66.77
2018-08-16T07:08:37.801Z,65.64
2018-08-16T07:09:37.796Z,65.73
2018-08-16T07:10:37.783Z,66.71
2018-08-16T07:11:37.766Z,64.87
2018-08-16T07:12:37.879Z,64.47
2018-08-16T07:13:37.748Z,63.53
2018-08-16T07:14:37.733Z,63.10
2018-08-16T07:15:37.731Z,62.60
2018-08-16T07:16:37.711Z,61.87
2018-08-16T07:17:37.708Z,63.95
2018-08-16T07:18:37.731Z,61.64
2018-08-16T07:19:37.678Z,61.81
2018-08-16T07:20:37.668Z,62.88
2018-08-16T07:21:37.657Z,61.58
2018-08-16T07:22:37.645Z,60.85
2018-08-16T07:23:37.659Z,58.55
2018-08-16T07:24:37.648Z,59.55
2018-08-16T07:25:37.614Z,60.12
2018-08-16T07:26:37.610Z,59.42
2018-08-16T07:27:37.592Z,59.42
2018-08-16T07:28:37.594Z,61.09
2018-08-16T07:29:37.575Z,59.49
2018-08-16T07:30:37.562Z,58.80
2018-08-16T07:31:37.551Z,60.46
2018-08-16T07:32:37.536Z,60.06
2018-08-16T07:33:37.543Z,56.84
2018-08-16T07:34:37.517Z,57.74
2018-08-16T07:35:37.503Z,57.41
2018-08-16T07:36:37.490Z,58.28
2018-08-16T07:37:37.484Z,57.48
2018-08-16T07:38:37.483Z,55.19
2018-08-16T07:39:37.460Z,55.29
2018-08-16T07:40:37.451Z,56.68
2018-08-16T07:41:37.443Z,57.35
2018-08-16T07:42:37.426Z,56.26
2018-08-16T07:43:37.425Z,55.93
2018-08-16T07:44:37.403Z,55.83
2018-08-16T07:45:37.591Z,56.90
2018-08-16T07:46:37.381Z,55.11
2018-08-16T07:47:37.370Z,54.91
2018-08-16T07:48:37.367Z,56.87
2018-08-16T07:49:37.366Z,55.08
2018-08-16T07:50:37.341Z,55.85
2018-08-16T07:51:37.509Z,54.93
2018-08-16T07:52:37.314Z,54.11
2018-08-16T07:53:37.324Z,54.80
2018-08-16T07:54:37.296Z,53.19
2018-08-16T07:55:37.288Z,51.87
2018-08-16T07:56:37.273Z,52.37
2018-08-16T07:57:37.264Z,54.13
2018-08-16T07:58:37.259Z,50.83
2018-08-16T07:59:37.309Z,51.82
2018-08-16T08:00:37.227Z,50.33
2018-08-16T08:01:37.271Z,49.26
2018-08-16T08:02:37.316Z,51.92
2018-08-16T08:03:37.386Z,49.84
2018-08-16T08:04:37.189Z,52.49
2018-08-16T08:05:37.173Z,51.97
2018-08-16T08:06:37.161Z,51.47
2018-08-16T08:07:37.150Z,48.22
2018-08-16T08:08:37.148Z,49.81
2018-08-16T08:09:37.308Z,51.03
2018-08-16T08:10:37.123Z,50.83
2018-08-16T08:11:37.107Z,52.22
2018-08-16T08:12:37.097Z,52.81
2018-08-16T08:13:37.095Z,52.00
2018-08-16T08:14:37.073Z,52.56
2018-08-16T08:15:37.146Z,50.68
2018-08-16T08:16:37.060Z,49.17
2018-08-16T08:17:37.045Z,51.05
2018-08-16T08:18:37.044Z,50.34
2018-08-16T08:19:37.020Z,52.24
2018-08-16T08:20:37.028Z,52.34
2018-08-16T08:21:36.997Z,49.37
2018-08-16T08:22:36.985Z,49.66
2018-08-16T08:23:36.986Z,47.66
2018-08-16T08:24:36.967Z,49.32
2018-08-16T08:25:36.962Z,48.72
2018-08-16T08:26:36.944Z,46.52
2018-08-16T08:27:36.934Z,46.70
2018-08-16T08:28:36.935Z,46.38
2018-08-16T08:29:36.918Z,44.78
2018-08-16T08:30:36.905Z,43.98
2018-08-16T08:31:36.949Z,45.86
2018-08-16T08:32:36.926Z,44.85
2018-08-16T08:33:36.885Z,43.98
2018-08-16T08:34:36.855Z,43.49
2018-08-16T08:35:36.847Z,47.32
2018-08-16T08:36:36.835Z,43.74
2018-08-16T08:37:36.825Z,45.60
2018-08-16T08:38:36.902Z,43.13
2018-08-16T08:39:36.803Z,42.83
2018-08-16T08:40:36.788Z,42.05
2018-08-16T08:41:36.779Z,42.10
2018-08-16T08:42:36.773Z,40.03
2018-08-16T08:43:36.769Z,40.92
2018-08-16T08:44:36.750Z,44.65
2018-08-16T08:45:36.738Z,41.35
2018-08-16T08:46:36.726Z,42.32
2018-08-16T08:47:36.716Z,40.21
2018-08-16T08:48:36.725Z,41.67
2018-08-16T08:49:36.694Z,38.80
2018-08-16T08:50:36.684Z,38.82
2018-08-16T08:51:36.672Z,38.62
2018-08-16T08:52:36.658Z,37.28
2018-08-16T08:53:36.664Z,39.86
2018-08-16T08:54:36.641Z,40.27
2018-08-16T08:55:36.630Z,39.20
2018-08-16T08:56:36.622Z,40.19
2018-08-16T08:57:36.603Z,39.89
2018-08-16T08:58:36.642Z,41.27
2018-08-16T08:59:36.590Z,42.26
2018-08-16T09:00:36.578Z,40.27
2018-08-16T09:01:36.566Z,40.08
2018-08-16T09:02:36.548Z,40.86
2018-08-16T09:03:36.549Z,41.63
2018-08-16T09:04:36.536Z,39.94
2018-08-16T09:05:36.552Z,41.59
2018-08-16T09:06:36.506Z,39.19
2018-08-16T09:07:36.495Z,37.88
2018-08-16T09:08:36.495Z,37.17
2018-08-16T09:09:36.471Z,38.53
2018-08-16T09:10:36.463Z,35.29
2018-08-16T09:11:36.454Z,37.86
2018-08-16T09:12:36.439Z,36.39
2018-08-16T09:13:36.470Z,36.70
2018-08-16T09:14:36.431Z,38.17
2018-08-16T09:15:36.408Z,37.65
2018-08-16T09:16:36.517Z,37.90
2018-08-16T09:17:36.411Z,37.41
2018-08-16T09:18:36.404Z,37.21
2018-08-16T09:19:36.371Z,37.43
2018-08-16T09:20:36.353Z,36.66
2018-08-16T09:21:36.340Z,36.78
2018-08-16T09:22:36.331Z,36.32
2018-08-16T09:23:36.319Z,37.52
2018-08-16T09:24:36.325Z,37.13
2018-08-16T09:25:36.408Z,36.65
2018-08-16T09:26:36.288Z,35.85
2018-08-16T09:27:36.284Z,36.40
2018-08-16T09:28:36.267Z,37.45
2018-08-16T09:29:36.285Z,36.68
2018-08-16T09:30:36.243Z,36.47
2018-08-16T09:31:36.309Z,36.08
2018-08-16T09:32:36.227Z,36.19
2018-08-16T09:33:36.214Z,36.80
2018-08-16T09:34:36.211Z,38.07
2018-08-16T09:35:36.189Z,36.44
2018-08-16T09:36:36.180Z,37.08
2018-08-16T09:37:36.169Z,37.89
2018-08-16T09:38:36.170Z,38.46
2018-08-16T09:39:36.230Z,39.56
2018-08-16T09:40:36.138Z,38.70
2018-08-16T09:41:36.128Z,38.48
2018-08-16T09:42:36.111Z,39.07
2018-08-16T09:43:36.107Z,39.76
2018-08-16T09:44:36.103Z,38.95
2018-08-16T09:45:36.174Z,39.05
2018-08-16T09:46:36.069Z,39.11
2018-08-16T09:47:36.061Z,38.62
2018-08-16T09:48:36.047Z,38.15
2018-08-16T09:49:36.054Z,38.07
2018-08-16T09:50:36.025Z,39.07
2018-08-16T09:51:36.124Z,38.79
2018-08-16T09:52:36.007Z,39.48
2018-08-16T09:53:35.994Z,39.18
2018-08-16T09:54:35.992Z,39.58
2018-08-16T09:55:35.973Z,38.01
2018-08-16T09:56:35.961Z,38.10
2018-08-16T09:57:35.955Z,37.99
2018-08-16T09:58:35.942Z,39.07
2018-08-16T09:59:35.949Z,39.64
2018-08-16T10:00:35.924Z,36.57
2018-08-16T10:01:35.906Z,37.97
2018-08-16T10:02:35.899Z,38.48
2018-08-16T10:03:35.893Z,39.89
2018-08-16T10:04:35.897Z,40.25
2018-08-16T10:05:35.871Z,41.69
2018-08-16T10:06:35.867Z,41.33
2018-08-16T10:07:35.844Z,42.64
2018-08-16T10:08:35.836Z,43.95
2018-08-16T10:09:35.837Z,42.14
2018-08-16T10:10:35.811Z,42.46
2018-08-16T10:11:35.804Z,42.84
2018-08-16T10:12:35.789Z,44.24
2018-08-16T10:13:35.917Z,42.86
2018-08-16T10:14:35.793Z,43.95
2018-08-16T10:15:35.756Z,42.66
2018-08-16T10:16:35.749Z,41.39
2018-08-16T10:17:35.737Z,41.39
2018-08-16T10:18:35.725Z,42.60
2018-08-16T10:19:35.726Z,42.01
2018-08-16T10:20:35.696Z,42.50
2018-08-16T10:21:35.687Z,42.82
2018-08-16T10:22:35.678Z,42.92
2018-08-16T10:23:35.675Z,42.63
2018-08-16T10:24:35.676Z,42.63
2018-08-16T10:25:35.734Z,42.92
2018-08-16T10:26:35.641Z,46.89
2018-08-16T10:27:35.624Z,45.90
2018-08-16T10:28:35.616Z,42.82
2018-08-16T10:29:35.622Z,42.63
2018-08-16T10:30:35.594Z,42.43
2018-08-16T10:31:35.588Z,42.63
2018-08-16T10:32:35.573Z,42.72
2018-08-16T10:33:35.565Z,44.89
2018-08-16T10:34:35.560Z,42.41
2018-08-16T10:35:35.538Z,42.01
2018-08-16T10:36:35.529Z,43.20
2018-08-16T10:37:35.512Z,44.09
2018-08-16T10:38:35.510Z,42.71
2018-08-16T10:39:35.503Z,43.67
2018-08-16T10:40:35.481Z,47.06
2018-08-16T10:41:35.472Z,46.77
2018-08-16T10:42:35.459Z,46.84
2018-08-16T10:43:35.454Z,42.19
2018-08-16T10:44:35.483Z,44.17
2018-08-16T10:45:35.446Z,44.37
2018-08-16T10:46:35.423Z,47.34
2018-08-16T10:47:35.407Z,45.65
2018-08-16T10:48:35.397Z,45.75
2018-08-16T10:49:35.399Z,44.27
2018-08-16T10:50:35.372Z,46.64
2018-08-16T10:51:35.372Z,47.63
2018-08-16T10:52:35.358Z,46.05
2018-08-16T10:53:35.340Z,45.85
2018-08-16T10:54:35.341Z,43.65
2018-08-16T10:55:35.317Z,42.49
2018-08-16T10:56:35.308Z,44.56
2018-08-16T10:57:35.297Z,42.36
2018-08-16T10:58:35.346Z,43.16
2018-08-16T10:59:35.290Z,41.39
2018-08-16T11:00:35.263Z,44.15
2018-08-16T11:01:35.253Z,41.97
2018-08-16T11:02:35.245Z,46.33
2018-08-16T11:03:35.232Z,46.12
2018-08-16T11:04:35.232Z,44.74
2018-08-16T11:05:35.208Z,44.84
2018-08-16T11:06:35.221Z,42.36
2018-08-16T11:07:35.269Z,43.26
2018-08-16T11:08:35.180Z,42.44
2018-08-16T11:09:35.177Z,41.95
2018-08-16T11:10:35.268Z,42.46
2018-08-16T11:11:35.153Z,44.02
2018-08-16T11:12:35.132Z,44.82
2018-08-16T11:13:35.129Z,46.80
2018-08-16T11:14:35.119Z,44.84
2018-08-16T11:15:35.101Z,41.87
2018-08-16T11:16:35.091Z,42.86
2018-08-16T11:17:35.080Z,42.27
2018-08-16T11:18:35.070Z,43.85
2018-08-16T11:19:35.081Z,44.24
2018-08-16T11:20:35.044Z,42.17
2018-08-16T11:21:35.035Z,45.63
2018-08-16T11:22:35.024Z,42.54
2018-08-16T11:23:35.016Z,42.07
2018-08-16T11:24:35.010Z,42.17
2018-08-16T11:25:35.004Z,41.69
2018-08-16T11:26:34.979Z,42.38
2018-08-16T11:27:34.972Z,43.67
2018-08-16T11:28:34.959Z,42.58
2018-08-16T11:29:34.948Z,44.07
2018-08-16T11:30:34.946Z,46.82
2018-08-16T11:31:34.926Z,46.33
2018-08-16T11:32:34.916Z,48.50
2018-08-16T11:33:34.906Z,45.83
2018-08-16T11:34:34.897Z,46.52
2018-08-16T11:35:34.894Z,48.23
2018-08-16T11:36:34.872Z,49.89
2018-08-16T11:37:34.863Z,46.23
2018-08-16T11:38:34.852Z,45.14
2018-08-16T11:39:34.840Z,44.84
2018-08-16T11:40:34.842Z,42.96
2018-08-16T11:41:34.816Z,43.16
2018-08-16T11:42:34.812Z,43.87
2018-08-16T11:43:34.798Z,45.16
2018-08-16T11:44:34.785Z,45.36
2018-08-16T11:45:34.785Z,43.97
2018-08-16T11:46:34.798Z,43.87
2018-08-16T11:47:34.754Z,42.38
2018-08-16T11:48:34.741Z,42.96
2018-08-16T11:49:34.732Z,42.57
2018-08-16T11:50:34.730Z,42.44
2018-08-16T11:51:34.715Z,41.36
2018-08-16T11:52:34.705Z,42.14
2018-08-16T11:53:34.689Z,46.30
2018-08-16T11:54:34.678Z,43.93
2018-08-16T11:55:34.678Z,40.76
2018-08-16T11:56:34.655Z,42.03
2018-08-16T11:57:34.645Z,42.14
2018-08-16T11:58:34.636Z,41.25
2018-08-16T11:59:34.625Z,45.01
2018-08-16T12:00:34.624Z,41.95
2018-08-16T12:01:34.603Z,40.76
2018-08-16T12:02:34.592Z,41.85
2018-08-16T12:03:34.581Z,42.05
2018-08-16T12:04:34.569Z,41.55
2018-08-16T12:05:34.569Z,42.54
2018-08-16T12:06:34.548Z,42.54
2018-08-16T12:07:34.539Z,42.54
2018-08-16T12:08:34.526Z,42.35
2018-08-16T12:09:34.514Z,40.37
2018-08-16T12:10:34.516Z,43.53
2018-08-16T12:11:34.494Z,42.05
2018-08-16T12:12:34.481Z,42.05
2018-08-16T12:13:34.470Z,42.14
2018-08-16T12:14:34.492Z,41.75
2018-08-16T12:15:34.466Z,43.73
2018-08-16T12:16:34.440Z,43.24
2018-08-16T12:17:34.431Z,44.32
2018-08-16T12:18:34.421Z,46.89
2018-08-16T12:19:34.405Z,44.23
2018-08-16T12:20:34.411Z,43.53
2018-08-16T12:21:34.385Z,44.82
2018-08-16T12:22:34.377Z,44.02
2018-08-16T12:23:34.363Z,43.83
2018-08-16T12:24:34.355Z,42.44
2018-08-16T12:25:34.352Z,42.13
2018-08-16T12:26:34.333Z,41.44
2018-08-16T12:27:34.322Z,42.52
2018-08-16T12:28:34.309Z,41.71
2018-08-16T12:29:34.314Z,41.61
2018-08-16T12:30:34.298Z,44.18
2018-08-16T12:31:34.277Z,43.49
2018-08-16T12:32:34.271Z,42.50
2018-08-16T12:33:34.256Z,42.50
2018-08-16T12:34:34.245Z,43.69
2018-08-16T12:35:34.243Z,46.55
2018-08-16T12:36:34.222Z,44.68
2018-08-16T12:37:34.214Z,41.44
2018-08-16T12:38:34.205Z,44.50
2018-08-16T12:39:34.192Z,42.72
2018-08-16T12:40:34.380Z,46.58
2018-08-16T12:41:34.175Z,44.87
2018-08-16T12:42:34.158Z,44.90
2018-08-16T12:43:34.149Z,45.09
2018-08-16T12:44:34.135Z,42.43
2018-08-16T12:45:34.162Z,42.52
2018-08-16T12:46:34.118Z,40.34
2018-08-16T12:47:34.166Z,41.61
2018-08-16T12:48:34.092Z,42.43
2018-08-16T12:49:34.085Z,41.31
2018-08-16T12:50:34.079Z,40.72
2018-08-16T12:51:34.059Z,41.22
2018-08-16T12:52:34.051Z,40.33
2018-08-16T12:53:34.113Z,41.61
2018-08-16T12:54:34.032Z,40.82
2018-08-16T12:55:34.029Z,40.33
2018-08-16T12:56:34.007Z,41.61
2018-08-16T12:57:33.995Z,41.69
2018-08-16T12:58:33.989Z,42.21
2018-08-16T12:59:33.980Z,41.99
2018-08-16T13:00:33.976Z,42.11
2018-08-16T13:01:33.952Z,42.78
2018-08-16T13:02:33.944Z,40.90
2018-08-16T13:03:33.928Z,40.21
2018-08-16T13:04:33.918Z,41.39
2018-08-16T13:05:33.917Z,41.89
2018-08-16T13:06:33.898Z,42.07
2018-08-16T13:07:33.889Z,39.60
2018-08-16T13:08:33.884Z,40.37
2018-08-16T13:09:33.871Z,42.07
2018-08-16T13:10:33.868Z,41.67
2018-08-16T13:11:33.841Z,41.36
2018-08-16T13:12:33.833Z,40.17
2018-08-16T13:13:33.909Z,40.76
2018-08-16T13:14:33.850Z,39.87
2018-08-16T13:15:33.899Z,39.26
2018-08-16T13:16:33.791Z,39.56
2018-08-16T13:17:33.779Z,39.86
2018-08-16T13:18:33.771Z,39.97
2018-08-16T13:19:33.799Z,43.52
2018-08-16T13:20:33.859Z,40.07
2018-08-16T13:21:33.734Z,42.34
2018-08-16T13:22:33.726Z,40.27
2018-08-16T13:23:33.718Z,40.47
2018-08-16T13:24:33.701Z,41.85
2018-08-16T13:25:33.692Z,40.07
2018-08-16T13:26:33.697Z,41.85
2018-08-16T13:27:33.765Z,42.44
2018-08-16T13:28:33.661Z,41.87
2018-08-16T13:29:33.649Z,39.79
2018-08-16T13:30:33.772Z,40.07
2018-08-16T13:31:33.638Z,41.55
2018-08-16T13:32:33.619Z,39.97
2018-08-16T13:33:33.615Z,40.45
2018-08-16T13:34:33.597Z,40.64
2018-08-16T13:35:33.583Z,43.41
2018-08-16T13:36:33.856Z,40.05
2018-08-16T13:37:33.567Z,39.95
2018-08-16T13:38:33.717Z,39.95
2018-08-16T13:39:33.542Z,42.82
2018-08-16T13:40:33.697Z,42.52
2018-08-16T13:41:33.762Z,40.15
2018-08-16T13:42:33.515Z,38.49
2018-08-16T13:43:33.498Z,39.65
2018-08-16T13:44:33.529Z,37.98
2018-08-16T13:45:33.476Z,39.58
2018-08-16T13:46:33.635Z,39.87
2018-08-16T13:47:33.454Z,40.66
2018-08-16T13:48:33.617Z,39.87
2018-08-16T13:49:33.437Z,41.55
2018-08-16T13:50:33.553Z,42.05
2018-08-16T13:51:33.421Z,43.43
2018-08-16T13:52:33.405Z,41.28
2018-08-16T13:53:33.395Z,44.83
2018-08-16T13:54:33.382Z,43.45
2018-08-16T13:55:33.371Z,42.26
2018-08-16T13:56:33.979Z,41.47
2018-08-16T13:57:33.351Z,42.68
2018-08-16T13:58:33.337Z,40.11
2018-08-16T13:59:33.324Z,39.72
2018-08-16T14:00:33.311Z,39.62
2018-08-16T14:01:33.322Z,39.79
2018-08-16T14:02:33.295Z,40.19
2018-08-16T14:03:33.280Z,40.88
2018-08-16T14:04:33.272Z,42.07
2018-08-16T14:05:33.258Z,43.57
2018-08-16T14:06:33.260Z,41.30
2018-08-16T14:07:33.237Z,43.96
2018-08-16T14:08:33.224Z,44.16
2018-08-16T14:09:33.217Z,44.75
2018-08-16T14:10:33.203Z,43.57
2018-08-16T14:11:33.202Z,44.78
2018-08-16T14:12:33.182Z,45.17
2018-08-16T14:13:33.172Z,41.31
2018-08-16T14:14:33.162Z,39.83
2018-08-16T14:15:33.151Z,39.83
2018-08-16T14:16:33.153Z,44.68
2018-08-16T14:17:33.131Z,44.28
2018-08-16T14:18:33.146Z,39.83
2018-08-16T14:19:33.109Z,40.82
2018-08-16T14:20:33.096Z,41.41
2018-08-16T14:21:33.094Z,42.70
2018-08-16T14:22:33.076Z,39.34
2018-08-16T14:23:33.068Z,43.88
2018-08-16T14:24:33.053Z,42.40
2018-08-16T14:25:33.042Z,44.68
2018-08-16T14:26:33.041Z,47.54
2018-08-16T14:27:33.018Z,40.34
2018-08-16T14:28:33.008Z,40.45
2018-08-16T14:29:33.001Z,39.95
2018-08-16T14:30:32.986Z,39.56
2018-08-16T14:31:32.988Z,39.85
2018-08-16T14:32:33.042Z,40.34
2018-08-16T14:33:32.958Z,42.22
2018-08-16T14:34:32.949Z,43.80
2018-08-16T14:35:32.939Z,41.44
2018-08-16T14:36:32.934Z,42.13
2018-08-16T14:37:32.916Z,43.12
2018-08-16T14:38:32.958Z,45.19
2018-08-16T14:39:32.889Z,45.12
2018-08-16T14:40:32.878Z,46.20
2018-08-16T14:41:32.886Z,46.60
2018-08-16T14:42:32.860Z,45.12
2018-08-16T14:43:32.847Z,42.54
2018-08-16T14:44:32.837Z,46.20
2018-08-16T14:45:32.827Z,42.07
2018-08-16T14:46:32.831Z,42.36
2018-08-16T14:47:32.804Z,43.26
2018-08-16T14:48:32.795Z,41.69
2018-08-16T14:49:32.787Z,40.29
2018-08-16T14:50:32.772Z,42.44
2018-08-16T14:51:32.783Z,50.48
2018-08-16T14:52:32.750Z,54.94
2018-08-16T14:53:32.738Z,56.74
2018-08-16T14:54:32.728Z,54.00
2018-08-16T14:55:32.716Z,57.50
2018-08-16T14:56:32.720Z,55.04
2018-08-16T14:57:32.699Z,59.04
2018-08-16T14:58:32.686Z,57.18
2018-08-16T14:59:32.675Z,48.37
2018-08-16T15:00:32.663Z,55.25
2018-08-16T15:01:32.673Z,55.15
2018-08-16T15:02:32.649Z,49.71
2018-08-16T15:03:32.631Z,60.55
2018-08-16T15:04:32.620Z,53.51
2018-08-16T15:05:32.612Z,56.30
2018-08-16T15:06:32.620Z,54.43
2018-08-16T15:07:32.587Z,57.71
2018-08-16T15:08:32.576Z,54.13
2018-08-16T15:09:32.564Z,55.33
2018-08-16T15:10:32.559Z,51.35
2018-08-16T15:11:32.557Z,50.68
2018-08-16T15:12:32.536Z,48.04
2018-08-16T15:13:32.522Z,47.99
2018-08-16T15:14:32.509Z,47.80
2018-08-16T15:15:32.502Z,45.98
2018-08-16T15:16:32.498Z,46.86
2018-08-16T15:17:32.479Z,47.75
2018-08-16T15:18:32.468Z,46.34
2018-08-16T15:19:32.459Z,46.64
2018-08-16T15:20:32.448Z,46.14
2018-08-16T15:21:32.445Z,44.23
2018-08-16T15:22:32.425Z,44.01
2018-08-16T15:23:32.419Z,42.01
2018-08-16T15:24:32.402Z,42.41
2018-08-16T15:25:32.395Z,41.99
2018-08-16T15:26:32.396Z,43.18
2018-08-16T15:27:32.371Z,42.58
2018-08-16T15:28:32.362Z,44.46
2018-08-16T15:29:32.411Z,43.87
2018-08-16T15:30:32.337Z,44.68
2018-08-16T15:31:32.338Z,43.49
2018-08-16T15:32:32.326Z,45.68
2018-08-16T15:33:32.308Z,45.38
2018-08-16T15:34:32.296Z,47.86
2018-08-16T15:35:32.283Z,49.54
2018-08-16T15:36:32.275Z,48.35
2018-08-16T15:37:32.415Z,46.17
2018-08-16T15:38:32.252Z,47.98
2018-08-16T15:39:32.250Z,49.37
2018-08-16T15:40:32.229Z,50.26
2018-08-16T15:41:32.218Z,50.36
2018-08-16T15:42:32.231Z,50.98
2018-08-16T15:43:32.196Z,50.48
2018-08-16T15:44:32.186Z,53.26
2018-08-16T15:45:32.178Z,52.49
2018-08-16T15:46:32.165Z,52.59
2018-08-16T15:47:32.168Z,55.96
2018-08-16T15:48:32.142Z,47.73
2018-08-16T15:49:32.133Z,47.83
2018-08-16T15:50:32.122Z,46.46
2018-08-16T15:51:32.110Z,44.18
2018-08-16T15:52:32.111Z,47.33
2018-08-16T15:53:32.088Z,46.44
2018-08-16T15:54:32.081Z,46.64
2018-08-16T15:55:32.067Z,47.92
2018-08-16T15:56:32.058Z,50.11
2018-08-16T15:57:32.060Z,44.83
2018-08-16T15:58:32.037Z,43.64
2018-08-16T15:59:32.027Z,43.93
2018-08-16T16:00:32.013Z,44.21
2018-08-16T16:01:32.006Z,44.51
2018-08-16T16:02:32.005Z,45.10
2018-08-16T16:03:31.980Z,46.09
2018-08-16T16:04:31.973Z,47.68
2018-08-16T16:05:31.969Z,48.47
2018-08-16T16:06:32.022Z,49.96
2018-08-16T16:07:31.953Z,49.49
2018-08-16T16:08:31.929Z,47.50
2018-08-16T16:09:31.917Z,47.03
2018-08-16T16:10:31.907Z,51.07
2018-08-16T16:11:31.952Z,50.11
2018-08-16T16:12:31.892Z,50.48
2018-08-16T16:13:31.872Z,47.83
2018-08-16T16:14:31.861Z,48.62
2018-08-16T16:15:31.857Z,49.39
2018-08-16T16:16:31.841Z,51.10
2018-08-16T16:17:31.838Z,49.91
2018-08-16T16:18:31.818Z,48.54
2018-08-16T16:19:31.810Z,52.02
2018-08-16T16:20:31.795Z,49.54
2018-08-16T16:21:31.787Z,54.30
2018-08-16T16:22:31.786Z,54.30
2018-08-16T16:23:31.763Z,51.03
2018-08-16T16:24:31.753Z,53.33
2018-08-16T16:25:31.745Z,54.43
2018-08-16T16:26:31.733Z,54.72
2018-08-16T16:27:31.735Z,53.33
2018-08-16T16:28:31.712Z,56.44
2018-08-16T16:29:31.701Z,56.21
2018-08-16T16:30:31.688Z,54.95
2018-08-16T16:31:31.678Z,54.06
2018-08-16T16:32:31.677Z,54.48
2018-08-16T16:33:31.661Z,54.78
2018-08-16T16:34:31.645Z,56.27
2018-08-16T16:35:31.653Z,54.18
2018-08-16T16:36:31.630Z,53.28
2018-08-16T16:37:31.663Z,54.68
2018-08-16T16:38:31.601Z,52.59
2018-08-16T16:39:31.589Z,54.71
2018-08-16T16:40:31.585Z,54.78
2018-08-16T16:41:31.586Z,51.32
2018-08-16T16:42:31.622Z,52.72
2018-08-16T16:43:31.549Z,54.90
2018-08-16T16:44:31.548Z,55.50
2018-08-16T16:45:31.534Z,56.10
2018-08-16T16:46:31.519Z,54.90
2018-08-16T16:47:31.525Z,53.41
2018-08-16T16:48:31.497Z,56.79
2018-08-16T16:49:31.484Z,58.09
2018-08-16T16:50:31.480Z,54.83
2018-08-16T16:51:31.461Z,56.99
2018-08-16T16:52:31.463Z,55.23